Trowbridge, United Kingdom
Current Conditions -  °F | °C
As of 6:50 AM on Friday 28 Nov 2014 (Local Time) from EGGD Reporting Station
Broken Clouds Broken Clouds  
Wind Chill: 42°   Ceiling: 900
Heat Index: 48°   Visibility: 6mi
Dew Point: 46°   Wind: 17mph
Humidity: 93%   Direction: 90°E
Pressure: 29.53"   Gusts: NA
Location:  51.32°N, 2.21°W
Report Text: EGGD 280650Z 09015KT 9000 BKN009 09/08 Q1000
Loading
Personal Weather Stations






























Interactive Weather Map New forecast layout! Learn more

10-Day Weather Forecast

Advertisements
Track Severe Weather on mobile